Time;durP1;ratioP1;P1;durP2;ratioP2;P2;SDS_P1;SDS_P2;PMS_P1;PMS_P2;Temp;Humidity;BMP_temperature;BMP_pressure;BME280_temperature;BME280_humidity;BME280_pressure;Samples;Min_cycle;Max_cycle;Signal;HPM_P1;HPM_P2
2022/07/15 00:01:55;;;;;;;13.00;4.50;;;;;;;;;;5284992;28;20029;-84
2022/07/15 00:04:27;;;;;;;10.05;4.10;;;;;;;;;;5267743;28;20043;-84
2022/07/15 00:06:58;;;;;;;14.48;4.88;;;;;;;;;;5257775;28;20029;-84
2022/07/15 00:12:29;;;;;;;11.38;5.07;;;;;;;;;;5280154;28;20044;-84
2022/07/15 00:15:04;;;;;;;10.90;4.60;;;;;;;;;;5262516;28;20477;-84
2022/07/15 00:17:35;;;;;;;9.55;4.28;;;;;;;;;;5274066;28;20056;-84
2022/07/15 00:20:07;;;;;;;10.73;4.38;;;;;;;;;;5261842;28;20033;-84
2022/07/15 00:22:42;;;;;;;11.00;5.13;;;;;;;;;;5282767;28;20037;-84
2022/07/15 00:25:14;;;;;;;10.88;4.88;;;;;;;;;;5267714;28;20031;-84
2022/07/15 00:27:55;;;;;;;12.00;5.18;;;;;;;;;;5265252;28;20068;-84
2022/07/15 00:30:35;;;;;;;8.90;3.88;;;;;;;;;;5267046;28;20035;-84
2022/07/15 00:33:07;;;;;;;11.68;4.70;;;;;;;;;;5280256;28;20033;-84
2022/07/15 00:35:38;;;;;;;9.38;5.30;;;;;;;;;;5265742;28;20697;-84
2022/07/15 00:38:10;;;;;;;10.57;4.60;;;;;;;;;;5266091;28;20037;-84
2022/07/15 00:40:42;;;;;;;9.57;4.30;;;;;;;;;;5267557;28;20040;-84
2022/07/15 00:43:16;;;;;;;7.72;3.92;;;;;;;;;;5267851;28;20040;-84
2022/07/15 00:45:52;;;;;;;7.50;3.47;;;;;;;;;;5264395;28;20167;-84
2022/07/15 00:48:23;;;;;;;6.95;3.95;;;;;;;;;;5281250;28;20511;-84
2022/07/15 00:50:58;;;;;;;11.35;5.00;;;;;;;;;;5269206;28;20029;-84
2022/07/15 00:53:32;;;;;;;6.30;3.83;;;;;;;;;;5265409;28;20033;-84
2022/07/15 00:56:04;;;;;;;12.15;4.50;;;;;;;;;;5267150;28;20040;-84
2022/07/15 00:58:42;;;;;;;11.75;4.20;;;;;;;;;;5279113;28;20067;-84
2022/07/15 01:01:21;;;;;;;12.73;4.78;;;;;;;;;;5278321;28;20087;-84
2022/07/15 01:03:59;;;;;;;12.88;4.47;;;;;;;;;;5277788;28;20127;-84
2022/07/15 01:06:31;;;;;;;8.57;4.35;;;;;;;;;;5268913;28;20094;-84
2022/07/15 01:09:05;;;;;;;8.73;4.10;;;;;;;;;;5265841;28;20057;-84
2022/07/15 01:11:37;;;;;;;11.63;4.22;;;;;;;;;;5261000;28;20135;-84
2022/07/15 01:14:15;;;;;;;12.93;4.18;;;;;;;;;;5260691;28;20148;-84
2022/07/15 01:16:46;;;;;;;13.60;5.03;;;;;;;;;;5265699;28;20127;-84
2022/07/15 01:19:21;;;;;;;13.65;4.00;;;;;;;;;;5278696;28;20074;-84
2022/07/15 01:21:52;;;;;;;14.68;4.80;;;;;;;;;;5256223;28;20040;-84
2022/07/15 01:24:24;;;;;;;8.45;4.18;;;;;;;;;;5262365;28;20421;-84
2022/07/15 01:26:55;;;;;;;11.35;4.05;;;;;;;;;;5284291;28;20069;-84
2022/07/15 01:29:27;;;;;;;11.52;4.45;;;;;;;;;;5284048;28;20439;-84
2022/07/15 01:32:01;;;;;;;12.63;4.43;;;;;;;;;;5260768;28;21475;-84
2022/07/15 01:34:32;;;;;;;12.63;5.00;;;;;;;;;;5263731;28;20029;-84
2022/07/15 01:37:04;;;;;;;12.98;5.75;;;;;;;;;;5265616;28;20505;-83
2022/07/15 01:39:35;;;;;;;15.88;5.38;;;;;;;;;;5266302;28;20044;-83
2022/07/15 01:42:27;;;;;;;13.68;5.80;;;;;;;;;;5265198;28;20430;-83
2022/07/15 01:44:59;;;;;;;11.82;6.15;;;;;;;;;;5282382;28;20021;-83
2022/07/15 01:47:32;;;;;;;13.00;6.32;;;;;;;;;;5285846;28;20067;-84
2022/07/15 01:50:06;;;;;;;12.40;5.60;;;;;;;;;;5279908;28;20419;-83
2022/07/15 01:52:38;;;;;;;12.43;5.30;;;;;;;;;;5270313;28;20998;-84
2022/07/15 01:55:09;;;;;;;15.45;5.78;;;;;;;;;;5265651;28;20025;-84
2022/07/15 01:57:40;;;;;;;15.43;5.70;;;;;;;;;;5260036;28;20036;-84
2022/07/15 02:00:13;;;;;;;14.30;6.30;;;;;;;;;;5282472;28;20210;-83
2022/07/15 02:02:47;;;;;;;15.88;6.63;;;;;;;;;;5268554;28;20338;-84
2022/07/15 02:05:18;;;;;;;16.17;5.95;;;;;;;;;;5280727;28;20059;-84
2022/07/15 02:07:52;;;;;;;9.23;4.70;;;;;;;;;;5274916;28;20521;-84
2022/07/15 02:10:23;;;;;;;13.25;5.15;;;;;;;;;;5281219;28;20033;-84
2022/07/15 02:12:54;;;;;;;11.40;4.67;;;;;;;;;;5279225;28;20049;-84
2022/07/15 02:15:25;;;;;;;11.97;6.00;;;;;;;;;;5271212;28;20063;-83
2022/07/15 02:18:00;;;;;;;10.90;5.50;;;;;;;;;;5268812;28;20775;-83
2022/07/15 02:20:31;;;;;;;11.57;4.65;;;;;;;;;;5259111;28;20325;-84
2022/07/15 02:23:03;;;;;;;13.40;5.82;;;;;;;;;;5267667;28;20389;-84
2022/07/15 02:25:34;;;;;;;12.23;5.82;;;;;;;;;;5255333;28;20033;-84
2022/07/15 02:28:06;;;;;;;11.57;5.15;;;;;;;;;;5263442;28;20091;-83
2022/07/15 02:30:38;;;;;;;14.48;5.45;;;;;;;;;;5256379;28;20028;-84
2022/07/15 02:33:09;;;;;;;12.55;5.00;;;;;;;;;;5273765;28;20036;-85
2022/07/15 02:35:42;;;;;;;8.52;4.88;;;;;;;;;;5270436;28;20028;-84
2022/07/15 02:38:22;;;;;;;15.73;5.80;;;;;;;;;;5250209;28;20410;-85
2022/07/15 02:41:07;;;;;;;13.02;6.15;;;;;;;;;;5275480;28;20147;-84
2022/07/15 02:43:42;;;;;;;10.18;5.30;;;;;;;;;;5262758;28;20569;-84
2022/07/15 02:46:15;;;;;;;8.85;5.22;;;;;;;;;;5248159;28;20034;-83
2022/07/15 02:48:49;;;;;;;12.20;5.07;;;;;;;;;;5283745;28;20489;-85
2022/07/15 02:51:27;;;;;;;8.85;5.97;;;;;;;;;;5253887;28;20363;-85
2022/07/15 02:54:08;;;;;;;11.75;5.78;;;;;;;;;;5256745;28;20476;-84
2022/07/15 02:56:39;;;;;;;13.38;6.32;;;;;;;;;;5264754;28;20378;-85
2022/07/15 02:59:19;;;;;;;14.00;6.18;;;;;;;;;;5261691;28;20024;-85
2022/07/15 03:01:59;;;;;;;18.17;6.40;;;;;;;;;;5289947;28;20040;-84
2022/07/15 03:04:31;;;;;;;14.00;5.43;;;;;;;;;;5259853;28;20529;-85
2022/07/15 03:07:08;;;;;;;17.70;6.47;;;;;;;;;;5259739;28;20235;-85
2022/07/15 03:09:39;;;;;;;12.10;6.32;;;;;;;;;;5258682;28;20041;-84
2022/07/15 03:12:14;;;;;;;13.65;6.10;;;;;;;;;;5276636;28;20049;-85
2022/07/15 03:14:45;;;;;;;11.23;5.63;;;;;;;;;;5278751;28;20025;-85
2022/07/15 03:20:52;;;;;;;;;;;;;;;;;;;;;
2022/07/15 03:34:01;;;;;;;;;;;;;;;;;;;;;
2022/07/15 03:39:33;;;;;;;9.95;5.60;;;;;;;;;;5275761;28;20041;-85
2022/07/15 03:42:08;;;;;;;18.58;6.63;;;;;;;;;;5274722;28;20997;-85
2022/07/15 03:44:43;;;;;;;11.43;6.25;;;;;;;;;;5255486;28;20049;-84
2022/07/15 03:50:57;;;;;;;11.73;5.60;;;;;;;;;;5232362;28;20026;-85
2022/07/15 03:54:29;;;;;;;;;;;;;;;;;;;;;
2022/07/15 03:57:39;;;;;;;;;;;;;;;;;;;;;
2022/07/15 04:00:37;;;;;;;17.20;7.53;;;;;;;;;;5282008;28;40830;-83
2022/07/15 04:03:11;;;;;;;14.10;6.53;;;;;;;;;;5266482;28;20501;-83
2022/07/15 04:05:46;;;;;;;17.50;7.68;;;;;;;;;;5255636;28;20516;-83
2022/07/15 04:08:20;;;;;;;16.63;7.18;;;;;;;;;;5266600;28;20035;-84
2022/07/15 04:10:51;;;;;;;18.75;7.65;;;;;;;;;;5255730;28;20029;-84
2022/07/15 04:13:33;;;;;;;15.95;8.00;;;;;;;;;;5255190;28;20041;-84
2022/07/15 04:16:08;;;;;;;14.35;8.25;;;;;;;;;;5274091;28;20048;-84
2022/07/15 04:18:43;;;;;;;16.88;8.57;;;;;;;;;;5266659;28;20037;-84
2022/07/15 04:21:23;;;;;;;15.00;8.20;;;;;;;;;;5283969;28;20044;-84
2022/07/15 04:23:54;;;;;;;16.52;8.52;;;;;;;;;;5263156;28;20507;-82
2022/07/15 04:26:26;;;;;;;15.77;9.23;;;;;;;;;;5258058;28;20044;-83
2022/07/15 04:28:58;;;;;;;15.95;8.13;;;;;;;;;;5265792;28;20033;-82
2022/07/15 04:31:49;;;;;;;15.52;9.70;;;;;;;;;;5274477;28;20044;-83
2022/07/15 04:34:33;;;;;;;18.23;9.15;;;;;;;;;;5256734;28;20069;-83
2022/07/15 04:37:05;;;;;;;13.65;8.32;;;;;;;;;;5269917;28;20094;-85
2022/07/15 04:39:45;;;;;;;10.98;8.18;;;;;;;;;;5278579;28;20025;-84
2022/07/15 04:42:39;;;;;;;12.15;8.15;;;;;;;;;;5265835;28;20055;-84
2022/07/15 04:45:11;;;;;;;13.32;7.28;;;;;;;;;;5264607;28;20107;-83
2022/07/15 04:47:42;;;;;;;15.82;7.43;;;;;;;;;;5267750;28;20025;-83
2022/07/15 04:53:07;;;;;;;15.40;6.78;;;;;;;;;;5278228;28;20037;-82
2022/07/15 04:55:38;;;;;;;12.10;6.93;;;;;;;;;;5285272;28;20037;-83
2022/07/15 04:58:44;;;;;;;19.70;7.00;;;;;;;;;;5265892;28;20026;-84
2022/07/15 05:01:16;;;;;;;17.15;6.53;;;;;;;;;;5241170;28;20046;-83
2022/07/15 05:03:47;;;;;;;11.93;5.80;;;;;;;;;;5252327;28;20039;-84
2022/07/15 05:06:21;;;;;;;15.43;6.45;;;;;;;;;;5264191;28;20029;-84
2022/07/15 05:08:59;;;;;;;13.77;5.80;;;;;;;;;;5263111;28;20036;-84
2022/07/15 05:11:33;;;;;;;14.48;6.43;;;;;;;;;;5261972;28;20028;-83
2022/07/15 05:14:05;;;;;;;21.00;6.68;;;;;;;;;;5273111;28;20060;-86
2022/07/15 05:16:36;;;;;;;19.30;6.97;;;;;;;;;;5283779;28;20384;-83
2022/07/15 05:19:08;;;;;;;16.13;7.10;;;;;;;;;;5278927;28;20045;-84
2022/07/15 05:21:41;;;;;;;11.75;5.95;;;;;;;;;;5264587;28;20496;-83
2022/07/15 05:24:13;;;;;;;17.85;7.53;;;;;;;;;;5263915;28;20389;-83
2022/07/15 05:26:44;;;;;;;20.48;8.23;;;;;;;;;;5264292;28;20032;-83
2022/07/15 05:29:16;;;;;;;18.95;5.90;;;;;;;;;;5278536;28;20385;-82
2022/07/15 05:31:48;;;;;;;14.57;5.45;;;;;;;;;;5274648;28;20477;-82
2022/07/15 05:34:19;;;;;;;18.58;5.80;;;;;;;;;;5261787;28;20034;-83
2022/07/15 05:36:53;;;;;;;10.77;5.22;;;;;;;;;;5257868;28;20036;-83
2022/07/15 05:39:25;;;;;;;13.52;4.93;;;;;;;;;;5266425;28;20029;-84
2022/07/15 05:42:06;;;;;;;;;;;;;;;;;;;;;
2022/07/15 05:44:38;;;;;;;10.38;4.55;;;;;;;;;;5274080;28;41164;-83
2022/07/15 05:47:09;;;;;;;12.10;4.50;;;;;;;;;;5279205;28;20033;-83
2022/07/15 05:49:41;;;;;;;9.40;3.90;;;;;;;;;;5266053;28;20028;-83
2022/07/15 05:52:12;;;;;;;18.73;5.38;;;;;;;;;;5259606;28;20075;-83
2022/07/15 05:54:47;;;;;;;11.77;4.05;;;;;;;;;;5266221;28;20027;-83
2022/07/15 05:57:26;;;;;;;20.67;4.68;;;;;;;;;;5268044;28;20024;-83
2022/07/15 05:59:57;;;;;;;11.02;4.10;;;;;;;;;;5265774;28;20040;-83
2022/07/15 06:02:30;;;;;;;12.18;4.00;;;;;;;;;;5264170;28;20143;-83
2022/07/15 06:05:02;;;;;;;10.30;3.38;;;;;;;;;;5276703;28;20025;-83
2022/07/15 06:07:37;;;;;;;14.63;3.63;;;;;;;;;;5266442;28;20217;-83
2022/07/15 06:10:08;;;;;;;14.63;3.85;;;;;;;;;;5266460;28;20489;-83
2022/07/15 06:12:40;;;;;;;16.00;3.63;;;;;;;;;;5262382;28;20054;-82
2022/07/15 06:15:11;;;;;;;14.13;2.50;;;;;;;;;;5264097;28;20021;-83
2022/07/15 06:17:42;;;;;;;7.47;2.70;;;;;;;;;;5265300;28;20469;-83
2022/07/15 06:20:14;;;;;;;8.18;2.70;;;;;;;;;;5285726;28;20033;-83
2022/07/15 06:22:45;;;;;;;6.63;2.35;;;;;;;;;;5269553;28;20389;-83
2022/07/15 06:25:16;;;;;;;7.95;2.38;;;;;;;;;;5277990;28;20060;-83
2022/07/15 06:27:48;;;;;;;8.05;2.05;;;;;;;;;;5282800;28;20024;-83
2022/07/15 06:30:19;;;;;;;9.20;2.50;;;;;;;;;;5283140;28;20766;-83
2022/07/15 06:32:50;;;;;;;7.40;2.00;;;;;;;;;;5282270;28;20037;-83
2022/07/15 06:35:22;;;;;;;5.70;1.90;;;;;;;;;;5264912;28;20628;-83
2022/07/15 06:37:53;;;;;;;7.50;2.10;;;;;;;;;;5281769;28;20075;-83
2022/07/15 06:40:24;;;;;;;7.23;1.70;;;;;;;;;;5277818;28;20030;-83
2022/07/15 06:42:55;;;;;;;8.73;2.00;;;;;;;;;;5261852;28;20443;-83
2022/07/15 06:45:26;;;;;;;12.05;2.05;;;;;;;;;;5260468;28;20017;-83
2022/07/15 06:47:57;;;;;;;9.10;1.67;;;;;;;;;;5263689;28;20110;-83
2022/07/15 06:50:29;;;;;;;5.40;1.50;;;;;;;;;;5282073;28;20386;-83
2022/07/15 06:53:00;;;;;;;7.17;1.80;;;;;;;;;;5282908;28;20377;-83
2022/07/15 06:55:31;;;;;;;7.18;1.40;;;;;;;;;;5263170;28;20145;-83
2022/07/15 06:58:03;;;;;;;6.33;1.40;;;;;;;;;;5282600;28;20044;-83
2022/07/15 07:00:34;;;;;;;3.67;1.40;;;;;;;;;;5282382;28;20236;-83
2022/07/15 07:03:05;;;;;;;6.60;1.23;;;;;;;;;;5282369;28;20075;-83
2022/07/15 07:05:37;;;;;;;2.97;0.97;;;;;;;;;;5263185;28;20299;-83
2022/07/15 07:08:08;;;;;;;4.57;1.10;;;;;;;;;;5282654;28;20029;-83
2022/07/15 07:10:39;;;;;;;5.97;1.00;;;;;;;;;;5282120;28;20021;-83
2022/07/15 07:13:10;;;;;;;4.10;1.00;;;;;;;;;;5282154;28;20512;-83
2022/07/15 07:15:45;;;;;;;3.03;0.90;;;;;;;;;;5262943;28;20416;-83
2022/07/15 07:18:16;;;;;;;3.85;1.00;;;;;;;;;;5281413;28;20128;-83
2022/07/15 07:20:47;;;;;;;4.60;0.93;;;;;;;;;;5281371;28;20486;-83
2022/07/15 07:23:19;;;;;;;3.13;0.80;;;;;;;;;;5282077;28;20029;-83
2022/07/15 07:25:50;;;;;;;3.97;1.20;;;;;;;;;;5281624;28;20390;-83
2022/07/15 07:28:21;;;;;;;7.07;0.83;;;;;;;;;;5273551;28;20104;-83
2022/07/15 07:30:54;;;;;;;3.27;1.00;;;;;;;;;;5275945;28;20441;-83
2022/07/15 07:33:25;;;;;;;3.60;0.85;;;;;;;;;;5276588;28;20584;-83
2022/07/15 07:35:57;;;;;;;3.03;1.20;;;;;;;;;;5297885;28;20021;-84
2022/07/15 07:38:28;;;;;;;5.70;1.47;;;;;;;;;;5294329;28;20307;-83
2022/07/15 07:41:00;;;;;;;2.63;0.90;;;;;;;;;;5296462;28;20216;-83
2022/07/15 07:43:32;;;;;;;3.35;1.13;;;;;;;;;;5291737;28;20278;-84
2022/07/15 07:46:03;;;;;;;4.50;0.88;;;;;;;;;;5285779;28;20533;-83
2022/07/15 07:48:35;;;;;;;5.32;1.25;;;;;;;;;;5267920;28;20496;-83
2022/07/15 07:51:06;;;;;;;2.43;0.90;;;;;;;;;;5271742;28;20024;-83
2022/07/15 07:53:37;;;;;;;4.90;1.08;;;;;;;;;;5279426;28;20024;-83
2022/07/15 07:56:09;;;;;;;5.87;0.90;;;;;;;;;;5266335;28;20033;-83
2022/07/15 07:58:40;;;;;;;6.60;1.10;;;;;;;;;;5295635;28;20338;-83
2022/07/15 08:01:11;;;;;;;5.10;1.00;;;;;;;;;;5286247;28;20278;-83
2022/07/15 08:03:42;;;;;;;3.60;0.90;;;;;;;;;;5287784;28;20120;-83
2022/07/15 08:06:13;;;;;;;2.10;0.70;;;;;;;;;;5293044;28;20074;-83
2022/07/15 08:08:45;;;;;;;6.17;1.20;;;;;;;;;;5294819;28;20472;-83
2022/07/15 08:11:19;;;;;;;4.07;0.82;;;;;;;;;;5288816;28;20021;-83
2022/07/15 08:13:50;;;;;;;3.05;0.70;;;;;;;;;;5296217;28;20067;-83
2022/07/15 08:16:21;;;;;;;5.67;1.10;;;;;;;;;;5288459;28;20025;-83
2022/07/15 08:18:53;;;;;;;6.00;1.80;;;;;;;;;;5293720;28;20036;-83
2022/07/15 08:21:24;;;;;;;7.55;1.70;;;;;;;;;;5294172;28;20362;-83
2022/07/15 08:23:55;;;;;;;2.37;1.10;;;;;;;;;;5291354;28;20032;-83
2022/07/15 08:26:26;;;;;;;8.77;1.30;;;;;;;;;;5290001;28;20028;-83
2022/07/15 08:28:58;;;;;;;4.00;0.60;;;;;;;;;;5267833;28;20036;-83
2022/07/15 08:31:29;;;;;;;4.70;0.90;;;;;;;;;;5288606;28;20028;-83
2022/07/15 08:34:00;;;;;;;5.97;1.10;;;;;;;;;;5274718;28;20648;-83
2022/07/15 08:36:31;;;;;;;5.80;1.08;;;;;;;;;;5280672;28;20025;-83
2022/07/15 08:39:02;;;;;;;4.57;1.10;;;;;;;;;;5283817;28;20029;-83
2022/07/15 08:41:35;;;;;;;4.97;0.90;;;;;;;;;;5284831;28;20381;-83
2022/07/15 08:44:06;;;;;;;4.90;0.73;;;;;;;;;;5285697;28;20481;-83
2022/07/15 08:46:40;;;;;;;6.70;1.10;;;;;;;;;;5283566;28;20025;-82
2022/07/15 08:49:15;;;;;;;4.82;0.98;;;;;;;;;;5287260;28;20036;-82
2022/07/15 08:51:47;;;;;;;3.80;1.08;;;;;;;;;;5294451;28;20040;-82
2022/07/15 08:54:18;;;;;;;4.45;1.25;;;;;;;;;;5298547;28;20028;-82
2022/07/15 08:56:50;;;;;;;3.80;1.17;;;;;;;;;;5298682;28;20106;-82
2022/07/15 08:59:21;;;;;;;3.58;1.00;;;;;;;;;;5291620;28;20028;-83
2022/07/15 09:01:53;;;;;;;7.05;1.30;;;;;;;;;;5270477;28;20455;-83
2022/07/15 09:04:24;;;;;;;2.90;0.80;;;;;;;;;;5281850;28;20028;-83
2022/07/15 09:07:02;;;;;;;5.80;1.10;;;;;;;;;;5289545;28;20047;-83
2022/07/15 09:09:34;;;;;;;2.05;0.88;;;;;;;;;;5289042;28;20377;-83
2022/07/15 09:12:06;;;;;;;4.90;1.27;;;;;;;;;;5287892;28;20076;-83
2022/07/15 09:14:39;;;;;;;3.38;0.80;;;;;;;;;;5275417;28;20433;-83
2022/07/15 09:17:10;;;;;;;7.13;0.77;;;;;;;;;;5271658;28;20043;-83
2022/07/15 09:20:01;;;;;;;2.55;0.52;;;;;;;;;;5285216;28;20426;-83
2022/07/15 09:22:46;;;;;;;1.85;0.57;;;;;;;;;;5292760;28;20064;-83
2022/07/15 09:25:17;;;;;;;3.67;0.70;;;;;;;;;;5271454;28;20521;-83
2022/07/15 09:27:49;;;;;;;5.05;1.23;;;;;;;;;;5293462;28;20029;-83
2022/07/15 09:36:01;;;;;;;2.63;1.00;;;;;;;;;;5291522;28;20123;-84
2022/07/15 09:38:34;;;;;;;3.03;0.80;;;;;;;;;;5287291;28;20174;-83
2022/07/15 09:41:05;;;;;;;2.63;1.00;;;;;;;;;;5289478;28;20024;-83
2022/07/15 09:43:44;;;;;;;3.67;0.80;;;;;;;;;;5291726;28;20028;-83
2022/07/15 09:46:17;;;;;;;4.57;0.88;;;;;;;;;;5296473;28;20476;-83
2022/07/15 09:48:49;;;;;;;4.95;1.05;;;;;;;;;;5265894;28;20029;-83
2022/07/15 09:51:21;;;;;;;3.13;0.95;;;;;;;;;;5293430;28;20415;-83
2022/07/15 09:53:53;;;;;;;2.25;0.77;;;;;;;;;;5274104;28;20024;-83
2022/07/15 09:56:26;;;;;;;2.73;0.87;;;;;;;;;;5293693;28;20028;-83
2022/07/15 09:58:57;;;;;;;3.28;0.80;;;;;;;;;;5290707;28;20065;-83
2022/07/15 10:01:28;;;;;;;3.75;0.70;;;;;;;;;;5291839;28;20118;-84
2022/07/15 10:04:00;;;;;;;3.90;0.93;;;;;;;;;;5292217;28;20291;-83
2022/07/15 10:06:35;;;;;;;5.20;0.73;;;;;;;;;;5286463;28;20029;-83
2022/07/15 10:09:06;;;;;;;;;;;;;;;;;;5296774;28;20033;-82
2022/07/15 10:11:42;;;;;;;5.65;0.90;;;;;;;;;;5288128;28;19916;-82
2022/07/15 10:14:19;;;;;;;3.53;0.90;;;;;;;;;;5322961;28;20064;-82
2022/07/15 10:17:09;;;;;;;3.25;0.85;;;;;;;;;;5287596;28;20039;-82
2022/07/15 10:20:00;;;;;;;3.25;0.50;;;;;;;;;;5299596;28;20458;-82
2022/07/15 10:22:50;;;;;;;2.28;0.65;;;;;;;;;;5285235;28;20457;-82
2022/07/15 10:25:24;;;;;;;2.97;0.75;;;;;;;;;;5283871;28;20041;-82
2022/07/15 10:27:55;;;;;;;;;;;;;;;;;;5283884;28;20037;-82
2022/07/15 10:30:26;;;;;;;2.15;0.65;;;;;;;;;;5283772;28;20387;-82
2022/07/15 10:33:03;;;;;;;1.90;0.60;;;;;;;;;;5282861;28;20036;-82
2022/07/15 10:35:38;;;;;;;3.92;0.80;;;;;;;;;;5282240;28;20938;-82
2022/07/15 10:38:28;;;;;;;3.25;0.70;;;;;;;;;;5260406;28;20053;-82
2022/07/15 10:41:09;;;;;;;1.58;0.40;;;;;;;;;;5262247;28;20514;-81
2022/07/15 10:43:54;;;;;;;1.25;0.38;;;;;;;;;;5262480;28;20025;-82
2022/07/15 10:46:28;;;;;;;1.40;0.52;;;;;;;;;;5271228;28;20020;-82
2022/07/15 10:49:00;;;;;;;1.73;0.60;;;;;;;;;;5282615;28;20036;-81
2022/07/15 10:51:37;;;;;;;1.17;0.60;;;;;;;;;;5283981;28;20469;-82
2022/07/15 10:54:31;;;;;;;1.95;0.55;;;;;;;;;;5283668;28;20056;-81
2022/07/15 10:57:02;;;;;;;3.83;0.70;;;;;;;;;;5255256;28;20103;-82
2022/07/15 10:59:40;;;;;;;3.53;0.80;;;;;;;;;;5282872;28;20021;-82
2022/07/15 11:02:13;;;;;;;2.85;0.70;;;;;;;;;;5266730;28;20041;-83
2022/07/15 11:04:45;;;;;;;4.07;0.73;;;;;;;;;;5284525;28;20021;-82
2022/07/15 11:07:16;;;;;;;4.57;0.85;;;;;;;;;;5282734;28;20364;-83
2022/07/15 11:10:11;;;;;;;2.83;0.80;;;;;;;;;;5265242;28;20118;-82
2022/07/15 11:12:48;;;;;;;2.83;0.70;;;;;;;;;;5281731;28;20049;-82
2022/07/15 11:15:23;;;;;;;2.70;0.50;;;;;;;;;;5283514;28;20031;-82
2022/07/15 11:17:56;;;;;;;3.58;0.60;;;;;;;;;;5283155;28;20033;-82
2022/07/15 11:20:30;;;;;;;3.20;0.70;;;;;;;;;;5265658;28;20375;-83
2022/07/15 11:23:02;;;;;;;1.33;0.50;;;;;;;;;;5282883;28;20033;-84
2022/07/15 11:25:38;;;;;;;1.55;0.52;;;;;;;;;;5264631;28;20013;-83
2022/07/15 11:28:13;;;;;;;2.63;0.68;;;;;;;;;;5262607;28;20116;-82
2022/07/15 11:30:53;;;;;;;2.42;0.50;;;;;;;;;;5280705;28;20032;-83
2022/07/15 11:33:29;;;;;;;2.55;0.57;;;;;;;;;;5279789;28;20044;-83
2022/07/15 11:36:02;;;;;;;2.85;0.65;;;;;;;;;;5280339;28;20112;-83
2022/07/15 11:38:37;;;;;;;3.85;0.70;;;;;;;;;;5263888;28;20017;-83
2022/07/15 11:46:49;;;;;;;3.35;0.63;;;;;;;;;;5281288;28;20029;-83
2022/07/15 11:49:30;;;;;;;3.80;0.80;;;;;;;;;;5281825;28;20385;-83
2022/07/15 11:52:02;;;;;;;3.28;0.60;;;;;;;;;;5282195;28;20025;-83
2022/07/15 11:54:37;;;;;;;3.60;0.60;;;;;;;;;;5282238;28;20132;-83
2022/07/15 11:57:11;;;;;;;3.63;0.60;;;;;;;;;;5282649;28;20041;-83
2022/07/15 11:59:55;;;;;;;2.00;0.50;;;;;;;;;;5262721;28;20039;-84
2022/07/15 12:02:27;;;;;;;1.52;0.47;;;;;;;;;;5271666;28;20038;-84
2022/07/15 12:05:02;;;;;;;1.55;0.40;;;;;;;;;;5260569;28;20328;-83
2022/07/15 12:07:47;;;;;;;1.25;0.50;;;;;;;;;;5261072;28;20088;-83
2022/07/15 12:10:32;;;;;;;1.40;0.40;;;;;;;;;;5242448;28;20585;-82
2022/07/15 12:13:04;;;;;;;2.80;0.60;;;;;;;;;;5243405;28;20045;-83
2022/07/15 12:15:36;;;;;;;1.27;0.40;;;;;;;;;;5285148;28;20100;-83
2022/07/15 12:18:07;;;;;;;4.07;0.60;;;;;;;;;;5265985;28;20040;-83
2022/07/15 12:20:39;;;;;;;1.33;0.40;;;;;;;;;;5285224;28;20028;-83
2022/07/15 12:23:11;;;;;;;2.22;0.65;;;;;;;;;;5284965;28;20040;-83
2022/07/15 12:25:42;;;;;;;3.75;0.80;;;;;;;;;;5285616;28;20014;-83
2022/07/15 12:28:29;;;;;;;2.97;0.65;;;;;;;;;;5283820;28;20508;-83
2022/07/15 12:31:00;;;;;;;2.88;0.47;;;;;;;;;;5264852;28;20472;-83
2022/07/15 12:33:35;;;;;;;2.23;0.60;;;;;;;;;;5285160;28;20119;-83
2022/07/15 12:36:14;;;;;;;2.72;0.57;;;;;;;;;;5284461;28;20299;-84
2022/07/15 12:39:01;;;;;;;5.72;0.80;;;;;;;;;;5264752;28;20029;-83
2022/07/15 12:41:32;;;;;;;2.80;0.40;;;;;;;;;;5265774;28;20033;-84
2022/07/15 12:44:04;;;;;;;3.13;0.50;;;;;;;;;;5283832;28;20051;-84
2022/07/15 12:46:56;;;;;;;2.20;0.52;;;;;;;;;;5274764;28;20397;-83
2022/07/15 12:49:46;;;;;;;7.63;0.88;;;;;;;;;;5277918;28;20140;-83
2022/07/15 12:52:22;;;;;;;3.35;0.52;;;;;;;;;;5283817;28;20032;-83
2022/07/15 12:54:54;;;;;;;3.50;0.60;;;;;;;;;;5267480;28;20363;-83
2022/07/15 12:57:33;;;;;;;2.45;0.50;;;;;;;;;;5262968;28;20078;-83
2022/07/15 13:00:07;;;;;;;1.10;0.52;;;;;;;;;;5264069;28;20025;-83
2022/07/15 13:02:57;;;;;;;2.13;0.50;;;;;;;;;;5265047;28;20069;-83
2022/07/15 13:05:30;;;;;;;2.80;0.70;;;;;;;;;;5266028;28;20045;-83
2022/07/15 13:08:02;;;;;;;2.42;0.50;;;;;;;;;;5284607;28;20432;-83
2022/07/15 13:10:33;;;;;;;3.05;0.57;;;;;;;;;;5283954;28;20021;-83
2022/07/15 13:13:05;;;;;;;3.00;0.80;;;;;;;;;;5283369;28;20052;-83
2022/07/15 13:15:36;;;;;;;3.72;0.90;;;;;;;;;;5283270;28;20511;-83
2022/07/15 13:18:07;;;;;;;2.25;0.93;;;;;;;;;;5265564;28;20033;-83
2022/07/15 13:20:39;;;;;;;3.07;0.80;;;;;;;;;;5283939;28;20039;-83
2022/07/15 13:23:10;;;;;;;4.63;0.80;;;;;;;;;;5283854;28;20272;-83
2022/07/15 13:25:41;;;;;;;2.27;0.90;;;;;;;;;;5281649;28;20385;-83
2022/07/15 13:28:13;;;;;;;2.55;0.70;;;;;;;;;;5257622;28;20263;-83
2022/07/15 13:30:45;;;;;;;5.63;0.90;;;;;;;;;;5283090;28;20472;-84
2022/07/15 13:33:16;;;;;;;1.92;0.60;;;;;;;;;;5265166;28;20029;-83
2022/07/15 13:35:48;;;;;;;4.07;1.10;;;;;;;;;;5283795;28;20147;-83
2022/07/15 13:38:21;;;;;;;2.70;0.85;;;;;;;;;;5265373;28;20432;-83
2022/07/15 13:40:53;;;;;;;4.90;0.90;;;;;;;;;;5264498;28;20016;-84
2022/07/15 13:43:24;;;;;;;3.07;0.70;;;;;;;;;;5282471;28;20055;-83
2022/07/15 13:45:55;;;;;;;4.07;0.60;;;;;;;;;;5283018;28;20409;-84
2022/07/15 13:48:26;;;;;;;4.45;0.80;;;;;;;;;;5284061;28;20057;-83
2022/07/15 13:53:47;;;;;;;11.32;1.20;;;;;;;;;;5283099;28;20025;-84
2022/07/15 13:56:19;;;;;;;10.93;1.13;;;;;;;;;;5265078;28;20139;-83
2022/07/15 13:58:50;;;;;;;9.50;1.00;;;;;;;;;;5280765;28;20025;-83
2022/07/15 14:01:21;;;;;;;2.83;0.90;;;;;;;;;;5285802;28;20037;-84
2022/07/15 14:03:54;;;;;;;1.47;0.80;;;;;;;;;;5283405;28;20021;-83
2022/07/15 14:06:25;;;;;;;2.35;0.80;;;;;;;;;;5265792;28;20029;-82
2022/07/15 14:08:56;;;;;;;4.97;0.80;;;;;;;;;;5285188;28;20042;-83
2022/07/15 14:11:28;;;;;;;5.28;0.90;;;;;;;;;;5290265;28;20025;-84
2022/07/15 14:13:59;;;;;;;6.07;0.88;;;;;;;;;;5283339;28;20045;-84
2022/07/15 14:16:30;;;;;;;9.50;1.10;;;;;;;;;;5279956;28;20029;-84
2022/07/15 14:19:01;;;;;;;3.20;0.97;;;;;;;;;;5287409;28;20047;-84
2022/07/15 14:21:33;;;;;;;5.27;1.13;;;;;;;;;;5285074;28;20021;-84
2022/07/15 14:24:04;;;;;;;2.63;1.00;;;;;;;;;;5265805;28;20278;-84
2022/07/15 14:26:35;;;;;;;3.23;0.80;;;;;;;;;;5292500;28;20162;-84
2022/07/15 14:29:07;;;;;;;5.68;1.10;;;;;;;;;;5293146;28;20421;-84
2022/07/15 14:31:38;;;;;;;7.15;0.98;;;;;;;;;;5280446;28;20107;-82
2022/07/15 14:34:09;;;;;;;3.77;0.90;;;;;;;;;;5282132;28;20036;-84
2022/07/15 14:36:41;;;;;;;7.03;0.90;;;;;;;;;;5291927;28;20028;-84
2022/07/15 14:39:12;;;;;;;4.60;1.20;;;;;;;;;;5300502;28;20109;-84
2022/07/15 14:41:46;;;;;;;3.27;0.90;;;;;;;;;;5302784;28;20025;-84
2022/07/15 14:44:17;;;;;;;3.13;0.95;;;;;;;;;;5295608;28;20310;-84
2022/07/15 14:46:49;;;;;;;2.90;0.83;;;;;;;;;;5281072;28;20021;-84
2022/07/15 14:49:20;;;;;;;2.37;1.03;;;;;;;;;;5281988;28;20037;-83
2022/07/15 14:51:51;;;;;;;4.40;1.00;;;;;;;;;;5283015;28;20036;-83
2022/07/15 14:54:22;;;;;;;10.83;1.07;;;;;;;;;;5269160;28;20253;-83
2022/07/15 14:56:53;;;;;;;10.45;1.52;;;;;;;;;;5277715;28;20032;-82
2022/07/15 14:59:24;;;;;;;2.77;1.03;;;;;;;;;;5292184;28;20031;-82
2022/07/15 15:01:56;;;;;;;6.33;0.83;;;;;;;;;;5281493;28;20025;-82
2022/07/15 15:04:28;;;;;;;18.25;1.80;;;;;;;;;;5264755;28;20100;-82
2022/07/15 15:06:59;;;;;;;10.52;1.20;;;;;;;;;;5282414;28;20021;-82
2022/07/15 15:09:30;;;;;;;7.70;1.10;;;;;;;;;;5264912;28;20388;-82
2022/07/15 15:12:02;;;;;;;2.78;0.77;;;;;;;;;;5263311;28;20034;-82
2022/07/15 15:14:33;;;;;;;4.10;0.90;;;;;;;;;;5283124;28;20387;-82
2022/07/15 15:17:04;;;;;;;6.25;1.33;;;;;;;;;;5268519;28;20021;-82
2022/07/15 15:19:36;;;;;;;2.30;1.10;;;;;;;;;;5268157;28;20060;-84
2022/07/15 15:22:07;;;;;;;2.17;0.80;;;;;;;;;;5278940;28;20413;-81
2022/07/15 15:24:39;;;;;;;1.73;0.80;;;;;;;;;;5270802;28;20108;-84
2022/07/15 15:27:10;;;;;;;5.68;1.10;;;;;;;;;;5268217;28;20037;-83
2022/07/15 15:29:41;;;;;;;1.77;0.77;;;;;;;;;;5262474;28;20056;-84
2022/07/15 15:32:15;;;;;;;4.07;1.10;;;;;;;;;;5262898;28;20024;-85
2022/07/15 15:34:46;;;;;;;3.85;0.80;;;;;;;;;;5284232;28;20442;-83
2022/07/15 15:37:18;;;;;;;3.63;1.00;;;;;;;;;;5285459;28;20112;-83
2022/07/15 15:39:49;;;;;;;3.85;0.90;;;;;;;;;;5263443;28;20024;-83
2022/07/15 15:42:20;;;;;;;2.00;0.88;;;;;;;;;;5289711;28;20040;-85
2022/07/15 15:44:52;;;;;;;2.85;1.00;;;;;;;;;;5264984;28;20041;-84
2022/07/15 15:47:23;;;;;;;1.75;0.77;;;;;;;;;;5281939;28;20336;-84
2022/07/15 15:49:54;;;;;;;3.97;1.17;;;;;;;;;;5291622;28;20017;-83
2022/07/15 15:52:25;;;;;;;3.00;0.80;;;;;;;;;;5280992;28;20493;-84
2022/07/15 15:54:57;;;;;;;3.15;0.93;;;;;;;;;;5284140;28;20051;-84
2022/07/15 15:57:28;;;;;;;2.80;0.90;;;;;;;;;;5275199;28;20036;-84
2022/07/15 15:59:59;;;;;;;8.73;1.10;;;;;;;;;;5267999;28;20040;-84
2022/07/15 16:02:30;;;;;;;3.08;1.48;;;;;;;;;;5270432;28;20693;-84
2022/07/15 16:05:01;;;;;;;4.93;1.48;;;;;;;;;;5285521;28;20025;-85